sensor_id;sensor_type;location;lat;lon;timestamp;pressure;altitude;pressure_sealevel;temperature;humidity
7333;BME280;3707;43.618;25.342;2023-03-15T00:01:58;99070.16;;;7.49;63.43
7333;BME280;3707;43.618;25.342;2023-03-15T00:04:25;99084.09;;;7.67;63.47
7333;BME280;3707;43.618;25.342;2023-03-15T00:06:52;99082.38;;;7.67;63.73
7333;BME280;3707;43.618;25.342;2023-03-15T00:09:19;99077.22;;;7.69;63.56
7333;BME280;3707;43.618;25.342;2023-03-15T00:11:48;99078.06;;;7.65;64.75
7333;BME280;3707;43.618;25.342;2023-03-15T00:14:15;99072.91;;;7.65;64.87
7333;BME280;3707;43.618;25.342;2023-03-15T00:16:43;99076.34;;;7.65;66.03
7333;BME280;3707;43.618;25.342;2023-03-15T00:19:10;99046.91;;;7.46;66.87
7333;BME280;3707;43.618;25.342;2023-03-15T00:21:37;99070.25;;;7.59;66.90
7333;BME280;3707;43.618;25.342;2023-03-15T00:24:07;99066.66;;;7.46;68.95
7333;BME280;3707;43.618;25.342;2023-03-15T00:26:34;99066.56;;;7.38;70.22
7333;BME280;3707;43.618;25.342;2023-03-15T00:29:01;99069.03;;;7.26;72.20
7333;BME280;3707;43.618;25.342;2023-03-15T00:31:28;99058.69;;;7.23;73.12
7333;BME280;3707;43.618;25.342;2023-03-15T00:33:56;99062.91;;;7.18;75.00
7333;BME280;3707;43.618;25.342;2023-03-15T00:36:24;99056.88;;;7.16;75.60
7333;BME280;3707;43.618;25.342;2023-03-15T00:38:52;99054.28;;;7.15;76.62
7333;BME280;3707;43.618;25.342;2023-03-15T00:41:21;99047.16;;;6.94;77.61
7333;BME280;3707;43.618;25.342;2023-03-15T00:43:48;99058.28;;;6.93;78.52
7333;BME280;3707;43.618;25.342;2023-03-15T00:46:17;99052.03;;;6.73;79.52
7333;BME280;3707;43.618;25.342;2023-03-15T00:48:47;99058.84;;;6.71;81.07
7333;BME280;3707;43.618;25.342;2023-03-15T00:51:17;99020.03;;;6.56;82.63
7333;BME280;3707;43.618;25.342;2023-03-15T00:53:46;99050.25;;;6.69;83.30
7333;BME280;3707;43.618;25.342;2023-03-15T00:56:14;99021.78;;;6.58;83.61
7333;BME280;3707;43.618;25.342;2023-03-15T00:58:42;99041.63;;;6.65;84.49
7333;BME280;3707;43.618;25.342;2023-03-15T01:01:11;99027.09;;;6.70;84.51
7333;BME280;3707;43.618;25.342;2023-03-15T01:03:38;99007.28;;;6.63;84.40
7333;BME280;3707;43.618;25.342;2023-03-15T01:06:10;99024.72;;;6.84;84.29
7333;BME280;3707;43.618;25.342;2023-03-15T01:08:38;99013.59;;;6.88;84.15
7333;BME280;3707;43.618;25.342;2023-03-15T01:11:09;99013.69;;;6.97;83.61
7333;BME280;3707;43.618;25.342;2023-03-15T01:13:36;98996.38;;;6.84;83.82
7333;BME280;3707;43.618;25.342;2023-03-15T01:16:04;99010.25;;;6.96;82.69
7333;BME280;3707;43.618;25.342;2023-03-15T01:18:31;99007.72;;;7.01;82.21
7333;BME280;3707;43.618;25.342;2023-03-15T01:20:58;99002.66;;;7.07;82.58
7333;BME280;3707;43.618;25.342;2023-03-15T01:23:25;98998.31;;;7.05;80.64
7333;BME280;3707;43.618;25.342;2023-03-15T01:25:53;98984.53;;;7.01;79.33
7333;BME280;3707;43.618;25.342;2023-03-15T01:28:20;99003.50;;;7.08;76.67
7333;BME280;3707;43.618;25.342;2023-03-15T01:30:50;99007.03;;;7.14;74.77
7333;BME280;3707;43.618;25.342;2023-03-15T01:33:17;99011.34;;;7.15;74.93
7333;BME280;3707;43.618;25.342;2023-03-15T01:35:45;99003.59;;;7.15;74.76
7333;BME280;3707;43.618;25.342;2023-03-15T01:38:11;98997.63;;;7.19;74.80
7333;BME280;3707;43.618;25.342;2023-03-15T01:40:41;98997.69;;;7.24;74.93
7333;BME280;3707;43.618;25.342;2023-03-15T01:43:18;99007.13;;;7.23;75.90
7333;BME280;3707;43.618;25.342;2023-03-15T01:45:57;99007.16;;;7.26;81.83
7333;BME280;3707;43.618;25.342;2023-03-15T01:48:28;98982.94;;;7.11;84.29
7333;BME280;3707;43.618;25.342;2023-03-15T01:50:58;99004.53;;;7.20;87.33
7333;BME280;3707;43.618;25.342;2023-03-15T01:53:26;98986.38;;;7.10;89.69
7333;BME280;3707;43.618;25.342;2023-03-15T01:55:54;99004.53;;;7.20;90.29
7333;BME280;3707;43.618;25.342;2023-03-15T01:58:23;98998.34;;;7.08;90.26
7333;BME280;3707;43.618;25.342;2023-03-15T02:00:52;99001.88;;;7.13;91.67
7333;BME280;3707;43.618;25.342;2023-03-15T02:03:22;99000.84;;;7.00;91.03
7333;BME280;3707;43.618;25.342;2023-03-15T02:05:54;98993.09;;;6.95;91.67
7333;BME280;3707;43.618;25.342;2023-03-15T02:08:26;99008.69;;;7.11;91.78
7333;BME280;3707;43.618;25.342;2023-03-15T02:10:56;99025.19;;;7.23;91.97
7333;BME280;3707;43.618;25.342;2023-03-15T02:13:27;99021.81;;;7.32;90.96
7333;BME280;3707;43.618;25.342;2023-03-15T02:15:55;99018.31;;;7.25;90.61
7333;BME280;3707;43.618;25.342;2023-03-15T02:18:22;99024.28;;;7.21;90.79
7333;BME280;3707;43.618;25.342;2023-03-15T02:20:53;99023.47;;;7.25;90.18
7333;BME280;3707;43.618;25.342;2023-03-15T02:23:25;99013.09;;;7.19;90.59
7333;BME280;3707;43.618;25.342;2023-03-15T02:25:58;99019.16;;;7.23;91.69
7333;BME280;3707;43.618;25.342;2023-03-15T02:28:31;99016.53;;;7.21;91.61
7333;BME280;3707;43.618;25.342;2023-03-15T02:30:58;99008.66;;;7.08;92.19
7333;BME280;3707;43.618;25.342;2023-03-15T02:33:27;98997.50;;;7.06;93.44
7333;BME280;3707;43.618;25.342;2023-03-15T02:35:55;98987.84;;;6.89;93.19
7333;BME280;3707;43.618;25.342;2023-03-15T02:38:31;99000.78;;;6.94;90.49
7333;BME280;3707;43.618;25.342;2023-03-15T02:40:58;99019.69;;;6.96;87.52
7333;BME280;3707;43.618;25.342;2023-03-15T02:43:27;99020.47;;;6.87;86.23
7333;BME280;3707;43.618;25.342;2023-03-15T02:45:57;99027.22;;;6.79;85.08
7333;BME280;3707;43.618;25.342;2023-03-15T02:48:25;98986.56;;;6.56;83.46
7333;BME280;3707;43.618;25.342;2023-03-15T02:50:52;98955.25;;;6.25;82.86
7333;BME280;3707;43.618;25.342;2023-03-15T02:53:19;99003.56;;;6.44;82.64
7333;BME280;3707;43.618;25.342;2023-03-15T02:55:46;99012.88;;;6.36;83.35
7333;BME280;3707;43.618;25.342;2023-03-15T02:58:13;99010.00;;;6.15;84.49
7333;BME280;3707;43.618;25.342;2023-03-15T03:00:39;99011.69;;;6.13;84.23
7333;BME280;3707;43.618;25.342;2023-03-15T03:03:08;99008.41;;;6.25;85.00
7333;BME280;3707;43.618;25.342;2023-03-15T03:05:36;99008.38;;;6.20;85.54
7333;BME280;3707;43.618;25.342;2023-03-15T03:08:03;99005.72;;;6.17;85.95
7333;BME280;3707;43.618;25.342;2023-03-15T03:10:29;99003.94;;;6.12;86.38
7333;BME280;3707;43.618;25.342;2023-03-15T03:12:56;99012.50;;;6.09;86.52
7333;BME280;3707;43.618;25.342;2023-03-15T03:15:23;99019.09;;;5.93;87.25
7333;BME280;3707;43.618;25.342;2023-03-15T03:17:50;99017.34;;;5.92;88.73
7333;BME280;3707;43.618;25.342;2023-03-15T03:20:20;99014.78;;;5.92;90.96
7333;BME280;3707;43.618;25.342;2023-03-15T03:22:46;99012.97;;;5.87;91.90
7333;BME280;3707;43.618;25.342;2023-03-15T03:25:13;98985.41;;;5.80;91.79
7333;BME280;3707;43.618;25.342;2023-03-15T03:27:40;99007.88;;;5.90;91.47
7333;BME280;3707;43.618;25.342;2023-03-15T03:30:10;99007.97;;;5.96;90.43
7333;BME280;3707;43.618;25.342;2023-03-15T03:32:39;98990.84;;;5.95;89.90
7333;BME280;3707;43.618;25.342;2023-03-15T03:35:06;99013.19;;;5.99;89.93
7333;BME280;3707;43.618;25.342;2023-03-15T03:37:34;98995.16;;;5.97;89.97
7333;BME280;3707;43.618;25.342;2023-03-15T03:40:01;99004.63;;;6.00;89.91
7333;BME280;3707;43.618;25.342;2023-03-15T03:42:31;99003.81;;;6.04;88.52
7333;BME280;3707;43.618;25.342;2023-03-15T03:44:58;99005.59;;;6.08;87.27
7333;BME280;3707;43.618;25.342;2023-03-15T03:47:24;99003.06;;;6.11;87.20
7333;BME280;3707;43.618;25.342;2023-03-15T03:49:51;98994.31;;;6.00;87.42
7333;BME280;3707;43.618;25.342;2023-03-15T03:52:18;98990.72;;;5.89;86.61
7333;BME280;3707;43.618;25.342;2023-03-15T03:54:46;98989.88;;;5.90;86.76
7333;BME280;3707;43.618;25.342;2023-03-15T03:57:13;98957.94;;;5.79;86.92
7333;BME280;3707;43.618;25.342;2023-03-15T03:59:40;98962.75;;;5.56;88.48
7333;BME280;3707;43.618;25.342;2023-03-15T04:02:07;98972.41;;;5.72;89.16
7333;BME280;3707;43.618;25.342;2023-03-15T04:04:33;98905.72;;;5.27;90.70
7333;BME280;3707;43.618;25.342;2023-03-15T04:07:00;98968.63;;;6.65;100.00
7333;BME280;3707;43.618;25.342;2023-03-15T04:09:27;98976.75;;;6.27;97.34
7333;BME280;3707;43.618;25.342;2023-03-15T04:11:55;98975.00;;;6.26;99.38
7333;BME280;3707;43.618;25.342;2023-03-15T04:14:22;98970.88;;;6.37;96.92
7333;BME280;3707;43.618;25.342;2023-03-15T04:16:49;98913.75;;;6.01;92.65
7333;BME280;3707;43.618;25.342;2023-03-15T04:19:16;98948.78;;;6.55;100.00
7333;BME280;3707;43.618;25.342;2023-03-15T04:21:43;98978.78;;;6.51;94.69
7333;BME280;3707;43.618;25.342;2023-03-15T04:24:11;98977.84;;;6.44;92.54
7333;BME280;3707;43.618;25.342;2023-03-15T04:26:38;98971.59;;;6.29;93.06
7333;BME280;3707;43.618;25.342;2023-03-15T04:29:09;98964.84;;;6.37;94.21
7333;BME280;3707;43.618;25.342;2023-03-15T04:31:36;98969.06;;;6.30;93.40
7333;BME280;3707;43.618;25.342;2023-03-15T04:34:03;98960.47;;;6.30;92.96
7333;BME280;3707;43.618;25.342;2023-03-15T04:36:30;98976.81;;;6.33;93.16
7333;BME280;3707;43.618;25.342;2023-03-15T04:38:57;98979.34;;;6.30;92.43
7333;BME280;3707;43.618;25.342;2023-03-15T04:41:30;98962.81;;;6.15;93.18
7333;BME280;3707;43.618;25.342;2023-03-15T04:43:59;98982.78;;;6.32;100.00
7333;BME280;3707;43.618;25.342;2023-03-15T04:46:27;98988.13;;;6.44;98.48
7333;BME280;3707;43.618;25.342;2023-03-15T04:48:54;98988.13;;;6.44;94.61
7333;BME280;3707;43.618;25.342;2023-03-15T04:51:21;98992.50;;;6.52;93.49
7333;BME280;3707;43.618;25.342;2023-03-15T04:53:47;98963.00;;;6.27;94.50
7333;BME280;3707;43.618;25.342;2023-03-15T04:56:14;98989.75;;;6.39;95.78
7333;BME280;3707;43.618;25.342;2023-03-15T04:58:41;98971.56;;;6.26;96.76
7333;BME280;3707;43.618;25.342;2023-03-15T05:01:08;98975.75;;;6.19;98.62
7333;BME280;3707;43.618;25.342;2023-03-15T05:03:36;98973.91;;;6.09;100.00
7333;BME280;3707;43.618;25.342;2023-03-15T05:06:03;98980.75;;;6.09;100.00
7333;BME280;3707;43.618;25.342;2023-03-15T05:08:32;98977.97;;;5.96;100.00
7333;BME280;3707;43.618;25.342;2023-03-15T05:11:00;98946.91;;;5.84;100.00
7333;BME280;3707;43.618;25.342;2023-03-15T05:13:26;98944.41;;;5.89;100.00
7333;BME280;3707;43.618;25.342;2023-03-15T05:15:53;98961.91;;;6.10;100.00
7333;BME280;3707;43.618;25.342;2023-03-15T05:18:20;98952.59;;;6.21;100.00
7333;BME280;3707;43.618;25.342;2023-03-15T05:20:49;98965.69;;;6.36;100.00
7333;BME280;3707;43.618;25.342;2023-03-15T05:23:16;98934.78;;;6.34;100.00
7333;BME280;3707;43.618;25.342;2023-03-15T05:25:42;98947.16;;;6.63;99.80
7333;BME280;3707;43.618;25.342;2023-03-15T05:28:09;98965.47;;;6.88;98.38
7333;BME280;3707;43.618;25.342;2023-03-15T05:30:36;98962.09;;;6.91;97.64
7333;BME280;3707;43.618;25.342;2023-03-15T05:33:03;98956.22;;;7.04;96.69
7333;BME280;3707;43.618;25.342;2023-03-15T05:35:29;98960.63;;;7.13;95.84
7333;BME280;3707;43.618;25.342;2023-03-15T05:37:58;98957.47;;;7.42;93.94
7333;BME280;3707;43.618;25.342;2023-03-15T05:40:25;98954.88;;;7.42;92.23
7333;BME280;3707;43.618;25.342;2023-03-15T05:42:54;98947.31;;;7.58;90.25
7333;BME280;3707;43.618;25.342;2023-03-15T05:45:21;98943.16;;;7.73;90.41
7333;BME280;3707;43.618;25.342;2023-03-15T05:47:48;98939.75;;;7.82;89.04
7333;BME280;3707;43.618;25.342;2023-03-15T05:50:15;98931.19;;;7.89;88.23
7333;BME280;3707;43.618;25.342;2023-03-15T05:52:42;98939.75;;;7.82;86.24
7333;BME280;3707;43.618;25.342;2023-03-15T05:55:10;98934.59;;;7.85;87.32
7333;BME280;3707;43.618;25.342;2023-03-15T05:57:36;98944.09;;;7.84;87.59
7333;BME280;3707;43.618;25.342;2023-03-15T06:00:04;98953.69;;;8.02;87.22
7333;BME280;3707;43.618;25.342;2023-03-15T06:02:33;98922.63;;;7.93;86.26
7333;BME280;3707;43.618;25.342;2023-03-15T06:05:00;98959.03;;;8.29;84.82
7333;BME280;3707;43.618;25.342;2023-03-15T06:07:27;98950.47;;;8.36;84.73
7333;BME280;3707;43.618;25.342;2023-03-15T06:09:53;98941.19;;;8.82;100.00
7333;BME280;3707;43.618;25.342;2023-03-15T06:12:21;98949.69;;;8.53;96.61
7333;BME280;3707;43.618;25.342;2023-03-15T06:14:48;98931.44;;;8.25;88.25
7333;BME280;3707;43.618;25.342;2023-03-15T06:17:15;98954.81;;;8.43;85.32
7333;BME280;3707;43.618;25.342;2023-03-15T06:19:42;98952.97;;;8.26;85.52
7333;BME280;3707;43.618;25.342;2023-03-15T06:22:09;98924.50;;;8.15;85.09
7333;BME280;3707;43.618;25.342;2023-03-15T06:24:36;98946.22;;;8.44;84.84
7333;BME280;3707;43.618;25.342;2023-03-15T06:27:03;98937.59;;;8.45;87.33
7333;BME280;3707;43.618;25.342;2023-03-15T06:29:31;98954.03;;;8.60;83.83
7333;BME280;3707;43.618;25.342;2023-03-15T06:31:58;98944.50;;;8.53;92.82
7333;BME280;3707;43.618;25.342;2023-03-15T06:34:25;98947.16;;;8.65;84.13
7333;BME280;3707;43.618;25.342;2023-03-15T06:36:52;98936.00;;;8.70;82.23
7333;BME280;3707;43.618;25.342;2023-03-15T06:39:18;98929.91;;;8.61;82.82
7333;BME280;3707;43.618;25.342;2023-03-15T06:41:45;98911.84;;;8.64;83.23
7333;BME280;3707;43.618;25.342;2023-03-15T06:44:12;98916.06;;;8.43;84.78
7333;BME280;3707;43.618;25.342;2023-03-15T06:46:40;98916.13;;;8.56;84.56
7333;BME280;3707;43.618;25.342;2023-03-15T06:49:07;98906.59;;;8.41;85.20
7333;BME280;3707;43.618;25.342;2023-03-15T06:51:33;98916.28;;;9.01;100.00
7333;BME280;3707;43.618;25.342;2023-03-15T06:54:01;98911.19;;;9.84;100.00
7333;BME280;3707;43.618;25.342;2023-03-15T06:56:27;98903.31;;;10.40;95.90
7333;BME280;3707;43.618;25.342;2023-03-15T06:58:54;98932.31;;;11.18;84.81
7333;BME280;3707;43.618;25.342;2023-03-15T07:01:22;98920.97;;;11.34;79.67
7333;BME280;3707;43.618;25.342;2023-03-15T07:03:50;98943.31;;;11.54;76.58
7333;BME280;3707;43.618;25.342;2023-03-15T07:06:17;98932.06;;;11.58;69.01
7333;BME280;3707;43.618;25.342;2023-03-15T07:08:44;98947.81;;;11.27;71.02
7333;BME280;3707;43.618;25.342;2023-03-15T07:11:11;98947.03;;;11.13;76.86
7333;BME280;3707;43.618;25.342;2023-03-15T07:13:38;98945.44;;;10.88;72.09
7333;BME280;3707;43.618;25.342;2023-03-15T07:16:05;98867.09;;;10.22;68.23
7333;BME280;3707;43.618;25.342;2023-03-15T07:18:32;98950.66;;;10.77;68.37
7333;BME280;3707;43.618;25.342;2023-03-15T07:21:01;98942.06;;;10.68;67.69
7333;BME280;3707;43.618;25.342;2023-03-15T07:23:29;98941.31;;;10.44;68.46
7333;BME280;3707;43.618;25.342;2023-03-15T07:25:56;98931.81;;;10.31;75.71
7333;BME280;3707;43.618;25.342;2023-03-15T07:28:24;98905.97;;;9.71;74.87
7333;BME280;3707;43.618;25.342;2023-03-15T07:30:52;98931.00;;;9.87;74.61
7333;BME280;3707;43.618;25.342;2023-03-15T07:33:19;98928.41;;;9.93;74.62
7333;BME280;3707;43.618;25.342;2023-03-15T07:35:47;98929.31;;;9.77;74.42
7333;BME280;3707;43.618;25.342;2023-03-15T07:38:16;98916.38;;;9.56;75.61
7333;BME280;3707;43.618;25.342;2023-03-15T07:40:43;98941.34;;;9.26;76.67
7333;BME280;3707;43.618;25.342;2023-03-15T07:43:10;98952.53;;;9.19;77.44
7333;BME280;3707;43.618;25.342;2023-03-15T07:45:37;98947.41;;;9.56;81.18
7333;BME280;3707;43.618;25.342;2023-03-15T07:48:04;98947.41;;;9.95;74.75
7333;BME280;3707;43.618;25.342;2023-03-15T07:50:31;98950.00;;;10.06;72.78
7333;BME280;3707;43.618;25.342;2023-03-15T07:52:58;98943.91;;;10.28;84.76
7333;BME280;3707;43.618;25.342;2023-03-15T07:55:26;98927.50;;;10.38;72.51
7333;BME280;3707;43.618;25.342;2023-03-15T07:57:52;98942.13;;;10.56;70.75
7333;BME280;3707;43.618;25.342;2023-03-15T08:00:20;98905.84;;;10.56;68.59
7333;BME280;3707;43.618;25.342;2023-03-15T08:02:47;98947.28;;;10.65;67.70
7333;BME280;3707;43.618;25.342;2023-03-15T08:05:14;98948.91;;;10.85;67.30
7333;BME280;3707;43.618;25.342;2023-03-15T08:07:43;98913.59;;;10.60;67.94
7333;BME280;3707;43.618;25.342;2023-03-15T08:10:11;98959.25;;;10.91;66.72
7333;BME280;3707;43.618;25.342;2023-03-15T08:12:39;98955.78;;;10.97;65.36
7333;BME280;3707;43.618;25.342;2023-03-15T08:15:08;98949.81;;;10.80;65.85
7333;BME280;3707;43.618;25.342;2023-03-15T08:17:36;98936.03;;;10.66;65.88
7333;BME280;3707;43.618;25.342;2023-03-15T08:20:03;98942.72;;;11.14;65.36
7333;BME280;3707;43.618;25.342;2023-03-15T08:22:30;98951.41;;;11.08;64.84
7333;BME280;3707;43.618;25.342;2023-03-15T08:24:57;98951.47;;;10.91;65.31
7333;BME280;3707;43.618;25.342;2023-03-15T08:27:24;98943.81;;;10.67;66.23
7333;BME280;3707;43.618;25.342;2023-03-15T08:29:52;98943.66;;;10.99;64.79
7333;BME280;3707;43.618;25.342;2023-03-15T08:32:19;98936.72;;;11.04;64.51
7333;BME280;3707;43.618;25.342;2023-03-15T08:34:46;98909.78;;;11.29;63.07
7333;BME280;3707;43.618;25.342;2023-03-15T08:37:13;98854.75;;;10.79;63.39
7333;BME280;3707;43.618;25.342;2023-03-15T08:39:40;98934.69;;;11.49;63.03
7333;BME280;3707;43.618;25.342;2023-03-15T08:42:07;98923.63;;;11.27;63.35
7333;BME280;3707;43.618;25.342;2023-03-15T08:44:34;98950.28;;;11.49;63.55
7333;BME280;3707;43.618;25.342;2023-03-15T08:47:02;98960.06;;;11.04;65.52
7333;BME280;3707;43.618;25.342;2023-03-15T08:49:29;98951.38;;;11.11;65.69
7333;BME280;3707;43.618;25.342;2023-03-15T08:51:56;98941.72;;;11.34;65.38
7333;BME280;3707;43.618;25.342;2023-03-15T08:54:23;98937.22;;;11.61;64.27
7333;BME280;3707;43.618;25.342;2023-03-15T08:56:51;98928.88;;;11.15;65.03
7333;BME280;3707;43.618;25.342;2023-03-15T08:59:18;98917.53;;;11.32;65.36
7333;BME280;3707;43.618;25.342;2023-03-15T09:01:45;98929.63;;;11.36;65.11
7333;BME280;3707;43.618;25.342;2023-03-15T09:04:13;98918.97;;;11.76;64.55
7333;BME280;3707;43.618;25.342;2023-03-15T09:06:40;98924.03;;;11.91;63.41
7333;BME280;3707;43.618;25.342;2023-03-15T09:09:07;98918.88;;;11.85;63.21
7333;BME280;3707;43.618;25.342;2023-03-15T09:11:34;98914.44;;;11.96;63.26
7333;BME280;3707;43.618;25.342;2023-03-15T09:14:01;98890.22;;;11.94;61.45
7333;BME280;3707;43.618;25.342;2023-03-15T09:16:28;98928.09;;;12.18;61.54
7333;BME280;3707;43.618;25.342;2023-03-15T09:18:55;98930.25;;;12.59;61.35
7333;BME280;3707;43.618;25.342;2023-03-15T09:21:23;98922.94;;;12.88;59.29
7333;BME280;3707;43.618;25.342;2023-03-15T09:23:50;98931.25;;;12.46;59.83
7333;BME280;3707;43.618;25.342;2023-03-15T09:26:16;98931.69;;;12.84;59.28
7333;BME280;3707;43.618;25.342;2023-03-15T09:28:43;98932.13;;;13.16;58.10
7333;BME280;3707;43.618;25.342;2023-03-15T09:31:10;98933.69;;;13.29;57.58
7333;BME280;3707;43.618;25.342;2023-03-15T09:33:37;98928.25;;;13.45;56.94
7333;BME280;3707;43.618;25.342;2023-03-15T09:36:04;98925.72;;;13.38;57.12
7333;BME280;3707;43.618;25.342;2023-03-15T09:38:32;98930.38;;;13.73;56.13
7333;BME280;3707;43.618;25.342;2023-03-15T09:40:59;98926.91;;;13.74;55.86
7333;BME280;3707;43.618;25.342;2023-03-15T09:43:43;98929.75;;;13.59;55.46
7333;BME280;3707;43.618;25.342;2023-03-15T09:46:24;98917.25;;;13.24;56.53
7333;BME280;3707;43.618;25.342;2023-03-15T09:48:55;98918.66;;;13.48;56.30
7333;BME280;3707;43.618;25.342;2023-03-15T09:51:34;98907.34;;;13.49;55.72
7333;BME280;3707;43.618;25.342;2023-03-15T09:54:09;98925.88;;;14.33;54.25
7333;BME280;3707;43.618;25.342;2023-03-15T09:56:39;98914.06;;;14.14;53.19
7333;BME280;3707;43.618;25.342;2023-03-15T09:59:10;98933.78;;;14.29;53.41
7333;BME280;3707;43.618;25.342;2023-03-15T10:01:41;98894.81;;;14.21;52.71
7333;BME280;3707;43.618;25.342;2023-03-15T10:04:13;98924.84;;;14.44;52.57
7333;BME280;3707;43.618;25.342;2023-03-15T10:06:48;98920.69;;;14.30;52.49
7333;BME280;3707;43.618;25.342;2023-03-15T10:09:21;98901.22;;;14.02;53.83
7333;BME280;3707;43.618;25.342;2023-03-15T10:11:58;98921.75;;;14.68;51.61
7333;BME280;3707;43.618;25.342;2023-03-15T10:17:20;98904.53;;;15.01;50.39
7333;BME280;3707;43.618;25.342;2023-03-15T10:19:51;98894.91;;;15.03;58.28
7333;BME280;3707;43.618;25.342;2023-03-15T10:22:22;98897.38;;;14.69;50.88
7333;BME280;3707;43.618;25.342;2023-03-15T10:24:55;98890.59;;;15.02;50.91
7333;BME280;3707;43.618;25.342;2023-03-15T10:27:28;98904.00;;;14.85;49.75
7333;BME280;3707;43.618;25.342;2023-03-15T10:29:57;98895.44;;;14.77;50.32
7333;BME280;3707;43.618;25.342;2023-03-15T10:32:27;98898.97;;;14.76;49.35
7333;BME280;3707;43.618;25.342;2023-03-15T10:34:56;98893.31;;;14.97;50.19
7333;BME280;3707;43.618;25.342;2023-03-15T10:37:24;98884.69;;;15.30;49.36
7333;BME280;3707;43.618;25.342;2023-03-15T10:39:55;98885.31;;;15.42;48.72
7333;BME280;3707;43.618;25.342;2023-03-15T10:42:28;98881.59;;;15.15;48.46
7333;BME280;3707;43.618;25.342;2023-03-15T10:44:55;98881.47;;;14.81;49.92
7333;BME280;3707;43.618;25.342;2023-03-15T10:47:23;98879.72;;;15.58;56.79
7333;BME280;3707;43.618;25.342;2023-03-15T10:49:55;98876.41;;;15.52;50.54
7333;BME280;3707;43.618;25.342;2023-03-15T10:52:32;98872.09;;;15.49;50.07
7333;BME280;3707;43.618;25.342;2023-03-15T10:55:04;98863.41;;;15.49;49.86
7333;BME280;3707;43.618;25.342;2023-03-15T10:57:37;98859.72;;;15.57;49.10
7333;BME280;3707;43.618;25.342;2023-03-15T11:00:18;98864.19;;;15.14;49.07
7333;BME280;3707;43.618;25.342;2023-03-15T11:02:49;98865.69;;;15.24;49.84
7333;BME280;3707;43.618;25.342;2023-03-15T11:05:18;98864.28;;;15.11;50.49
7333;BME280;3707;43.618;25.342;2023-03-15T11:07:56;98877.84;;;15.26;50.68
7333;BME280;3707;43.618;25.342;2023-03-15T11:10:26;98872.59;;;15.65;49.92
7333;BME280;3707;43.618;25.342;2023-03-15T11:13:11;98866.91;;;16.15;49.61
7333;BME280;3707;43.618;25.342;2023-03-15T11:15:38;98843.09;;;15.94;48.92
7333;BME280;3707;43.618;25.342;2023-03-15T11:18:06;98861.00;;;15.75;49.41
7333;BME280;3707;43.618;25.342;2023-03-15T11:20:42;98863.75;;;16.03;48.42
7333;BME280;3707;43.618;25.342;2023-03-15T11:23:13;98867.31;;;16.32;47.57
7333;BME280;3707;43.618;25.342;2023-03-15T11:25:42;98860.72;;;16.19;47.61
7333;BME280;3707;43.618;25.342;2023-03-15T11:28:16;98864.81;;;15.96;47.35
7333;BME280;3707;43.618;25.342;2023-03-15T11:30:44;98863.72;;;16.04;47.87
7333;BME280;3707;43.618;25.342;2023-03-15T11:33:24;98866.41;;;16.33;47.44
7333;BME280;3707;43.618;25.342;2023-03-15T11:35:52;98858.91;;;16.21;47.47
7333;BME280;3707;43.618;25.342;2023-03-15T11:38:27;98866.66;;;16.24;46.91
7333;BME280;3707;43.618;25.342;2023-03-15T11:40:59;98867.72;;;16.48;46.36
7333;BME280;3707;43.618;25.342;2023-03-15T11:43:33;98863.19;;;16.55;45.86
7333;BME280;3707;43.618;25.342;2023-03-15T11:46:09;98851.25;;;16.45;45.13
7333;BME280;3707;43.618;25.342;2023-03-15T11:48:43;98859.03;;;15.49;46.06
7333;BME280;3707;43.618;25.342;2023-03-15T11:51:13;98851.34;;;15.77;45.16
7333;BME280;3707;43.618;25.342;2023-03-15T11:53:43;98812.56;;;15.62;44.75
7333;BME280;3707;43.618;25.342;2023-03-15T11:56:23;98837.31;;;15.81;45.45
7333;BME280;3707;43.618;25.342;2023-03-15T11:59:05;98835.94;;;15.68;46.84
7333;BME280;3707;43.618;25.342;2023-03-15T12:01:35;98830.16;;;15.18;46.88
7333;BME280;3707;43.618;25.342;2023-03-15T12:07:27;98822.75;;;15.00;48.32
7333;BME280;3707;43.618;25.342;2023-03-15T12:09:55;98818.75;;;14.85;48.50
7333;BME280;3707;43.618;25.342;2023-03-15T12:12:36;98807.63;;;15.14;48.20
7333;BME280;3707;43.618;25.342;2023-03-15T12:15:15;98811.81;;;15.21;46.92
7333;BME280;3707;43.618;25.342;2023-03-15T12:18:02;98805.25;;;15.41;46.52
7333;BME280;3707;43.618;25.342;2023-03-15T12:20:33;98812.00;;;15.14;44.43
7333;BME280;3707;43.618;25.342;2023-03-15T12:23:19;98817.81;;;15.25;44.34
7333;BME280;3707;43.618;25.342;2023-03-15T12:25:51;98805.34;;;15.01;42.18
7333;BME280;3707;43.618;25.342;2023-03-15T12:28:25;98810.91;;;15.22;42.87
7333;BME280;3707;43.618;25.342;2023-03-15T12:30:57;98816.16;;;15.22;43.65
7333;BME280;3707;43.618;25.342;2023-03-15T12:33:27;98812.16;;;15.42;42.54
7333;BME280;3707;43.618;25.342;2023-03-15T12:35:58;98812.06;;;15.46;42.30
7333;BME280;3707;43.618;25.342;2023-03-15T12:38:31;98788.22;;;15.24;42.52
7333;BME280;3707;43.618;25.342;2023-03-15T12:41:05;98801.09;;;15.32;42.65
7333;BME280;3707;43.618;25.342;2023-03-15T12:43:39;98808.53;;;15.49;43.56
7333;BME280;3707;43.618;25.342;2023-03-15T12:46:52;98795.06;;;15.65;43.93
7333;BME280;3707;43.618;25.342;2023-03-15T12:49:29;98797.69;;;15.98;45.51
7333;BME280;3707;43.618;25.342;2023-03-15T12:51:58;98781.38;;;15.88;43.97
7333;BME280;3707;43.618;25.342;2023-03-15T12:54:31;98788.00;;;16.01;43.85
7333;BME280;3707;43.618;25.342;2023-03-15T12:57:01;98777.41;;;15.73;44.32
7333;BME280;3707;43.618;25.342;2023-03-15T12:59:39;98777.13;;;15.84;43.95
7333;BME280;3707;43.618;25.342;2023-03-15T13:02:22;98765.47;;;15.65;44.33
7333;BME280;3707;43.618;25.342;2023-03-15T13:04:58;98765.78;;;15.85;43.76
7333;BME280;3707;43.618;25.342;2023-03-15T13:07:31;98790.91;;;16.21;43.79
7333;BME280;3707;43.618;25.342;2023-03-15T13:10:24;98782.00;;;15.65;44.24
7333;BME280;3707;43.618;25.342;2023-03-15T13:13:00;98791.19;;;16.12;44.30
7333;BME280;3707;43.618;25.342;2023-03-15T13:15:35;98789.25;;;16.19;44.77
7333;BME280;3707;43.618;25.342;2023-03-15T13:18:12;98758.16;;;16.08;45.58
7333;BME280;3707;43.618;25.342;2023-03-15T13:20:59;98792.75;;;15.87;46.02
7333;BME280;3707;43.618;25.342;2023-03-15T13:23:31;98699.84;;;15.43;46.15
7333;BME280;3707;43.618;25.342;2023-03-15T13:26:15;98789.56;;;16.07;46.25
7333;BME280;3707;43.618;25.342;2023-03-15T13:28:47;98759.25;;;16.01;46.40
7333;BME280;3707;43.618;25.342;2023-03-15T13:31:20;98766.44;;;15.93;47.16
7333;BME280;3707;43.618;25.342;2023-03-15T13:33:49;98785.22;;;16.06;46.36
7333;BME280;3707;43.618;25.342;2023-03-15T13:36:18;98773.91;;;15.74;46.56